createdAt,value
2022-12-03T00:02:15.430Z,94207.13
2022-12-03T00:04:41.931Z,94211.47
2022-12-03T00:07:08.379Z,94216.41
2022-12-03T00:09:34.836Z,94218.19
2022-12-03T00:12:01.411Z,94207.91
2022-12-03T00:14:27.865Z,94205.03
2022-12-03T00:16:54.380Z,94211.47
2022-12-03T00:19:20.821Z,94209.00
2022-12-03T00:21:47.221Z,94208.22
2022-12-03T00:24:13.633Z,94208.44
2022-12-03T00:26:40.057Z,94212.84
2022-12-03T00:29:07.066Z,94204.03
2022-12-03T00:31:33.517Z,94211.00
2022-12-03T00:33:59.937Z,94207.91
2022-12-03T00:36:26.345Z,94203.03
2022-12-03T00:38:53.739Z,94204.81
2022-12-03T00:41:20.154Z,94211.97
2022-12-03T00:43:46.593Z,94213.53
2022-12-03T00:46:15.753Z,94203.78
2022-12-03T00:48:46.208Z,94211.47
2022-12-03T00:51:13.015Z,94212.59
2022-12-03T00:53:39.575Z,94209.00
2022-12-03T00:56:06.430Z,94218.50
2022-12-03T00:58:32.882Z,94211.00
2022-12-03T01:00:59.296Z,94206.13
2022-12-03T01:03:25.925Z,94212.03
2022-12-03T01:05:52.350Z,94217.47
2022-12-03T01:08:18.783Z,94213.69
2022-12-03T01:10:45.201Z,94221.38
2022-12-03T01:13:11.606Z,94211.09
2022-12-03T01:15:38.066Z,94210.53
2022-12-03T01:18:04.511Z,94214.16
2022-12-03T01:20:30.989Z,94216.47
2022-12-03T01:22:58.460Z,94211.84
2022-12-03T01:25:25.084Z,94209.59
2022-12-03T01:27:51.513Z,94207.56
2022-12-03T01:30:17.935Z,94211.44
2022-12-03T01:32:44.364Z,94214.34
2022-12-03T01:35:10.762Z,94209.72
2022-12-03T01:37:37.336Z,94213.31
2022-12-03T01:40:05.123Z,94216.44
2022-12-03T01:42:35.123Z,94218.28
2022-12-03T01:45:03.518Z,94216.25
2022-12-03T01:47:37.815Z,94209.31
2022-12-03T01:50:32.958Z,94212.44
2022-12-03T01:53:02.324Z,94212.19
2022-12-03T01:55:29.114Z,94209.88
2022-12-03T01:58:01.028Z,94210.16
2022-12-03T02:00:28.775Z,94207.88
2022-12-03T02:02:59.370Z,94205.84
2022-12-03T02:05:28.707Z,94213.56
2022-12-03T02:07:55.872Z,94210.47
2022-12-03T02:10:30.665Z,94216.06
2022-12-03T02:13:00.888Z,94212.97
2022-12-03T02:15:27.432Z,94215.47
2022-12-03T02:17:54.812Z,94214.38
2022-12-03T02:20:21.643Z,94219.53
2022-12-03T02:23:03.299Z,94222.88
2022-12-03T02:25:32.094Z,94222.34
2022-12-03T02:28:00.091Z,94225.16
2022-12-03T02:30:28.508Z,94216.44
2022-12-03T02:32:56.809Z,94219.53
2022-12-03T02:35:27.115Z,94208.19
2022-12-03T02:38:00.432Z,94214.94
2022-12-03T02:40:30.717Z,94212.84
2022-12-03T02:43:01.158Z,94220.78
2022-12-03T02:45:32.263Z,94210.50
2022-12-03T02:48:02.573Z,94212.06
2022-12-03T02:50:33.304Z,94212.53
2022-12-03T02:53:05.432Z,94216.13
2022-12-03T02:55:37.126Z,94210.69
2022-12-03T02:58:05.227Z,94213.31
2022-12-03T03:00:31.893Z,94213.06
2022-12-03T03:02:58.578Z,94210.75
2022-12-03T03:05:25.417Z,94214.09
2022-12-03T03:07:51.966Z,94212.78
2022-12-03T03:10:21.822Z,94208.66
2022-12-03T03:12:48.524Z,94211.75
2022-12-03T03:15:15.380Z,94214.34
2022-12-03T03:17:42.899Z,94212.84
2022-12-03T03:20:10.611Z,94219.06
2022-12-03T03:22:40.507Z,94212.13
2022-12-03T03:25:10.758Z,94207.03
2022-12-03T03:27:38.243Z,94204.47
2022-12-03T03:30:05.629Z,94202.94
2022-12-03T03:32:32.936Z,94212.44
2022-12-03T03:35:00.796Z,94217.03
2022-12-03T03:37:28.257Z,94205.19
2022-12-03T03:39:55.423Z,94202.84
2022-12-03T03:42:22.734Z,94204.41
2022-12-03T03:44:49.687Z,94206.22
2022-12-03T03:47:17.061Z,94203.09
2022-12-03T03:49:44.064Z,94197.44
2022-12-03T03:52:11.681Z,94202.00
2022-12-03T03:54:39.401Z,94198.44
2022-12-03T03:57:06.105Z,94194.31
2022-12-03T03:59:32.533Z,94190.66
2022-12-03T04:01:58.963Z,94194.81
2022-12-03T04:04:35.069Z,94192.75
2022-12-03T04:07:01.545Z,94198.13
2022-12-03T04:09:27.973Z,94205.84
2022-12-03T04:12:12.721Z,94194.72
2022-12-03T04:14:39.107Z,94200.88
2022-12-03T04:17:05.515Z,94198.25
2022-12-03T04:19:31.911Z,94198.47
2022-12-03T04:22:16.736Z,94192.03
2022-12-03T04:24:43.468Z,94198.16
2022-12-03T04:27:28.719Z,94199.19
2022-12-03T04:29:55.085Z,94208.38
2022-12-03T04:32:40.276Z,94198.09
2022-12-03T04:35:25.678Z,94193.16
2022-12-03T04:37:52.125Z,94200.59
2022-12-03T04:40:37.175Z,94197.97
2022-12-03T04:43:03.593Z,94192.22
2022-12-03T04:45:30.167Z,94202.72
2022-12-03T04:47:56.642Z,94203.97
2022-12-03T04:50:23.016Z,94195.97
2022-12-03T04:52:49.401Z,94197.75
2022-12-03T04:55:15.808Z,94200.31
2022-12-03T04:57:42.331Z,94199.25
2022-12-03T05:00:09.359Z,94201.03
2022-12-03T05:02:35.840Z,94207.66
2022-12-03T05:05:02.340Z,94199.72
2022-12-03T05:07:28.802Z,94195.03
2022-12-03T05:09:55.244Z,94203.00
2022-12-03T05:12:21.656Z,94188.59
2022-12-03T05:14:48.080Z,94195.50
2022-12-03T05:17:14.510Z,94185.25
2022-12-03T05:19:59.703Z,94179.09
2022-12-03T05:22:26.115Z,94183.47
2022-12-03T05:24:52.983Z,94188.59
2022-12-03T05:27:23.865Z,94178.06
2022-12-03T05:29:50.860Z,94182.75
2022-12-03T05:32:17.301Z,94184.78
2022-12-03T05:34:43.683Z,94186.34
2022-12-03T05:37:10.089Z,94180.09
2022-12-03T05:39:36.619Z,94182.13
2022-12-03T05:42:21.883Z,94186.16
2022-12-03T05:44:48.377Z,94185.56
2022-12-03T05:47:15.043Z,94184.25
2022-12-03T05:49:41.474Z,94188.59
2022-12-03T05:52:07.877Z,94181.69
2022-12-03T05:54:34.333Z,94188.84
2022-12-03T05:57:00.757Z,94186.16
2022-12-03T05:59:27.392Z,94189.44
2022-12-03T06:01:53.831Z,94190.69
2022-12-03T06:04:20.265Z,94191.94
2022-12-03T06:06:46.695Z,94176.22
2022-12-03T06:09:13.168Z,94182.28
2022-12-03T06:11:40.574Z,94194.09
2022-12-03T06:14:07.256Z,94194.88
2022-12-03T06:16:33.737Z,94198.47
2022-12-03T06:19:00.315Z,94213.31
2022-12-03T06:21:27.236Z,94213.78
2022-12-03T06:23:53.668Z,94216.78
2022-12-03T06:26:20.088Z,94223.50
2022-12-03T06:28:47.671Z,94226.28
2022-12-03T06:31:14.475Z,94224.41
2022-12-03T06:33:40.940Z,94207.16
2022-12-03T06:36:07.623Z,94204.34
2022-12-03T06:38:34.058Z,94206.38
2022-12-03T06:41:00.497Z,94204.59
2022-12-03T06:43:27.007Z,94210.72
2022-12-03T06:45:53.396Z,94199.69
2022-12-03T06:48:19.777Z,94210.38
2022-12-03T06:50:46.139Z,94219.66
2022-12-03T06:53:12.536Z,94214.53
2022-12-03T06:55:39.260Z,94212.19
2022-12-03T06:58:05.687Z,94208.84
2022-12-03T07:00:32.109Z,94217.53
2022-12-03T07:02:58.604Z,94215.97
2022-12-03T07:05:25.037Z,94221.88
2022-12-03T07:07:52.296Z,94212.66
2022-12-03T07:10:19.293Z,94223.78
2022-12-03T07:12:45.853Z,94220.19
2022-12-03T07:15:12.325Z,94223.00
2022-12-03T07:17:39.023Z,94218.31
2022-12-03T07:20:06.357Z,94214.19
2022-12-03T07:22:32.938Z,94211.09
2022-12-03T07:24:59.359Z,94212.09
2022-12-03T07:27:25.806Z,94209.31
2022-12-03T07:29:52.225Z,94207.53
2022-12-03T07:32:18.680Z,94208.28
2022-12-03T07:34:45.120Z,94204.63
2022-12-03T07:37:11.560Z,94214.13
2022-12-03T07:39:40.427Z,94213.78
2022-12-03T07:42:09.159Z,94215.25
2022-12-03T07:44:35.714Z,94199.34
2022-12-03T07:47:02.176Z,94201.13
2022-12-03T07:49:28.608Z,94199.09
2022-12-03T07:51:56.826Z,94198.84
2022-12-03T07:54:24.393Z,94195.63
2022-12-03T07:56:50.846Z,94189.25
2022-12-03T07:59:17.650Z,94192.34
2022-12-03T08:01:44.429Z,94195.94
2022-12-03T08:04:12.817Z,94201.53
2022-12-03T08:06:39.238Z,94198.19
2022-12-03T08:09:05.659Z,94196.84
2022-12-03T08:11:33.291Z,94202.00
2022-12-03T08:13:59.841Z,94193.50
2022-12-03T08:16:26.342Z,94194.50
2022-12-03T08:18:54.871Z,94202.00
2022-12-03T08:21:21.816Z,94206.78
2022-12-03T08:23:48.314Z,94204.47
2022-12-03T08:26:23.398Z,94200.88
2022-12-03T08:28:51.210Z,94196.78
2022-12-03T08:31:32.276Z,94201.66
2022-12-03T08:34:15.402Z,94207.25
2022-12-03T08:36:41.964Z,94202.56
2022-12-03T08:39:29.959Z,94201.78
2022-12-03T08:42:24.363Z,94204.34
2022-12-03T08:44:52.511Z,94206.69
2022-12-03T08:47:22.031Z,94208.03
2022-12-03T08:49:58.119Z,94196.00
2022-12-03T08:52:31.389Z,94195.75
2022-12-03T08:54:57.938Z,94196.28
2022-12-03T08:57:28.421Z,94197.84
2022-12-03T08:59:59.711Z,94192.97
2022-12-03T09:02:32.913Z,94189.63
2022-12-03T09:05:23.385Z,94180.69
2022-12-03T09:07:49.871Z,94166.63
2022-12-03T09:10:16.424Z,94164.16
2022-12-03T09:12:42.809Z,94166.34
2022-12-03T09:15:09.608Z,94173.34
2022-12-03T09:17:36.868Z,94174.81
2022-12-03T09:20:04.762Z,94174.56
2022-12-03T09:22:31.405Z,94179.41
2022-12-03T09:24:57.780Z,94186.56
2022-12-03T09:27:24.223Z,94179.31
2022-12-03T09:29:51.092Z,94194.47
2022-12-03T09:32:18.748Z,94194.38
2022-12-03T09:34:45.576Z,94202.28
2022-12-03T09:37:11.980Z,94203.06
2022-12-03T09:39:38.472Z,94200.22
2022-12-03T09:42:05.384Z,94199.63
2022-12-03T09:44:35.648Z,94203.97
2022-12-03T09:47:03.007Z,94210.13
2022-12-03T09:49:32.745Z,94207.03
2022-12-03T09:52:02.943Z,94202.44
2022-12-03T09:54:30.896Z,94204.47
2022-12-03T09:57:00.791Z,94191.06
2022-12-03T09:59:31.712Z,94186.53
2022-12-03T10:01:58.543Z,94179.81
2022-12-03T10:04:25.121Z,94182.16
2022-12-03T10:06:51.616Z,94181.94
2022-12-03T10:09:24.334Z,94185.38
2022-12-03T10:11:50.951Z,94186.91
2022-12-03T10:14:19.529Z,94178.00
2022-12-03T10:16:46.500Z,94174.66
2022-12-03T10:19:22.575Z,94171.50
2022-12-03T10:21:49.139Z,94169.06
2022-12-03T10:24:24.144Z,94160.19
2022-12-03T10:26:52.537Z,94164.63
2022-12-03T10:29:18.956Z,94155.22
2022-12-03T10:31:46.837Z,94160.44
2022-12-03T10:34:13.339Z,94158.44
2022-12-03T10:36:40.375Z,94154.84
2022-12-03T10:39:16.913Z,94151.19
2022-12-03T10:41:44.647Z,94149.31
2022-12-03T10:44:15.805Z,94142.66
2022-12-03T10:46:42.728Z,94142.84
2022-12-03T10:49:14.806Z,94140.06
2022-12-03T10:51:41.737Z,94140.28
2022-12-03T10:54:16.692Z,94135.16
2022-12-03T10:56:43.683Z,94127.94
2022-12-03T10:59:17.026Z,94129.19
2022-12-03T11:01:43.719Z,94126.41
2022-12-03T11:04:20.021Z,94133.63
2022-12-03T11:06:46.748Z,94128.72
2022-12-03T11:09:22.472Z,94122.25
2022-12-03T11:11:49.242Z,94116.53
2022-12-03T11:14:54.481Z,94130.88
2022-12-03T11:17:50.592Z,94122.13
2022-12-03T11:20:22.871Z,94121.56
2022-12-03T11:22:53.320Z,94116.44
2022-12-03T11:25:28.871Z,94112.00
2022-12-03T11:28:13.815Z,94113.25
2022-12-03T11:30:49.825Z,94112.69
2022-12-03T11:33:26.661Z,94116.81
2022-12-03T11:36:05.286Z,94111.69
2022-12-03T11:38:37.558Z,94114.03
2022-12-03T11:41:19.221Z,94120.94
2022-12-03T11:43:51.721Z,94113.69
2022-12-03T11:46:24.525Z,94116.72
2022-12-03T11:48:54.049Z,94109.50
2022-12-03T11:51:22.884Z,94104.06
2022-12-03T11:53:51.457Z,94109.94
2022-12-03T11:56:25.762Z,94103.81
2022-12-03T11:59:04.242Z,94098.69
2022-12-03T12:01:38.787Z,94093.03
2022-12-03T12:04:06.374Z,94089.69
2022-12-03T12:06:46.420Z,94085.34
2022-12-03T12:09:53.186Z,94083.56
2022-12-03T12:12:39.067Z,94082.25
2022-12-03T12:15:33.206Z,94078.34
2022-12-03T12:18:36.935Z,94069.09
2022-12-03T12:21:41.692Z,94070.34
2022-12-03T12:24:40.538Z,94075.16
2022-12-03T12:27:09.885Z,94068.16
2022-12-03T12:29:38.211Z,94062.97
2022-12-03T12:32:10.705Z,94049.56
2022-12-03T12:34:41.331Z,94051.59
2022-12-03T12:37:30.432Z,94054.63
2022-12-03T12:39:57.397Z,94043.38
2022-12-03T12:42:33.186Z,94023.34
2022-12-03T12:45:16.553Z,94039.56
2022-12-03T12:47:49.296Z,94046.56
2022-12-03T12:50:17.968Z,94041.75
2022-12-03T12:52:52.809Z,94039.19
2022-12-03T12:55:20.357Z,94042.53
2022-12-03T12:57:47.148Z,94042.06
2022-12-03T13:00:15.728Z,94034.59
2022-12-03T13:02:49.657Z,94031.25
2022-12-03T13:05:16.933Z,94036.38
2022-12-03T13:07:44.037Z,94033.06
2022-12-03T13:10:32.958Z,94041.75
2022-12-03T13:13:12.576Z,94040.97
2022-12-03T13:15:45.274Z,94033.28
2022-12-03T13:18:34.530Z,94029.25
2022-12-03T13:21:13.602Z,94031.03
2022-12-03T13:23:40.201Z,94018.59
2022-12-03T13:26:34.078Z,94024.03
2022-12-03T13:29:10.097Z,94033.28
2022-12-03T13:31:43.395Z,94026.59
2022-12-03T13:34:21.880Z,94026.13
2022-12-03T13:36:55.475Z,94030.25
2022-12-03T13:39:36.640Z,94021.56
2022-12-03T13:42:42.092Z,94020.00
2022-12-03T13:45:17.483Z,94016.66
2022-12-03T13:47:47.289Z,94012.31
2022-12-03T13:50:32.933Z,94015.97
2022-12-03T13:53:06.729Z,94007.25
2022-12-03T13:55:33.187Z,94015.19
2022-12-03T13:57:59.640Z,94002.38
2022-12-03T14:00:26.148Z,94015.72
2022-12-03T14:02:52.617Z,94008.81
2022-12-03T14:05:21.063Z,94012.94
2022-12-03T14:07:47.535Z,94013.50
2022-12-03T14:10:14.111Z,94023.03
2022-12-03T14:12:40.514Z,94019.47
2022-12-03T14:15:08.500Z,94018.44
2022-12-03T14:17:35.004Z,94020.78
2022-12-03T14:20:01.927Z,94017.66
2022-12-03T14:22:28.646Z,94008.44
2022-12-03T14:24:55.153Z,94008.66
2022-12-03T14:27:24.800Z,93997.78
2022-12-03T14:29:52.229Z,94007.13
2022-12-03T14:32:19.168Z,94011.53
2022-12-03T14:34:45.641Z,94013.09
2022-12-03T14:37:12.135Z,94004.31
2022-12-03T14:39:38.583Z,94028.88
2022-12-03T14:42:14.017Z,94025.44
2022-12-03T14:44:44.923Z,94023.09
2022-12-03T14:47:12.387Z,94030.25
2022-12-03T14:49:39.153Z,94007.50
2022-12-03T14:52:08.620Z,94016.59
2022-12-03T14:54:39.168Z,94014.03
2022-12-03T14:57:05.617Z,94015.25
2022-12-03T14:59:31.995Z,94022.16
2022-12-03T15:01:58.546Z,94013.69
2022-12-03T15:04:25.224Z,94018.28
2022-12-03T15:06:51.657Z,94020.59
2022-12-03T15:09:18.099Z,94013.63
2022-12-03T15:11:46.420Z,94015.19
2022-12-03T15:14:13.304Z,94016.19
2022-12-03T15:16:39.784Z,94004.28
2022-12-03T15:19:06.258Z,94017.97
2022-12-03T15:21:34.792Z,94012.38
2022-12-03T15:24:02.074Z,94013.63
2022-12-03T15:26:28.947Z,94010.06
2022-12-03T15:28:55.398Z,94008.19
2022-12-03T15:31:21.858Z,94013.00
2022-12-03T15:33:48.537Z,94009.88
2022-12-03T15:36:15.055Z,94002.44
2022-12-03T15:38:41.484Z,94007.31
2022-12-03T15:41:28.615Z,94008.34
2022-12-03T15:43:59.266Z,94004.00
2022-12-03T15:46:27.835Z,94005.00
2022-12-03T15:48:55.219Z,93998.88
2022-12-03T15:51:21.663Z,94002.75
2022-12-03T15:53:48.084Z,94002.19
2022-12-03T15:56:14.680Z,94006.00
2022-12-03T15:58:41.664Z,94009.34
2022-12-03T16:01:08.849Z,94008.25
2022-12-03T16:03:35.910Z,94014.38
2022-12-03T16:06:02.527Z,94013.59
2022-12-03T16:08:29.025Z,94012.34
2022-12-03T16:10:55.474Z,94015.94
2022-12-03T16:13:21.944Z,94015.94
2022-12-03T16:15:48.498Z,94013.16
2022-12-03T16:18:15.033Z,94013.94
2022-12-03T16:20:41.482Z,94015.50
2022-12-03T16:23:08.181Z,94009.34
2022-12-03T16:25:34.668Z,94018.59
2022-12-03T16:28:01.073Z,94008.09
2022-12-03T16:30:27.510Z,94009.88
2022-12-03T16:32:53.982Z,94004.75
2022-12-03T16:35:20.435Z,93998.88
2022-12-03T16:37:46.938Z,94004.75
2022-12-03T16:40:13.455Z,93994.28
2022-12-03T16:42:39.919Z,93994.81
2022-12-03T16:45:09.881Z,94002.31
2022-12-03T16:47:36.614Z,93996.16
2022-12-03T16:50:07.963Z,93992.34
2022-12-03T16:52:34.773Z,93995.47
2022-12-03T16:55:01.517Z,93993.84
2022-12-03T16:57:33.436Z,93999.75
2022-12-03T17:00:01.029Z,93996.59
2022-12-03T17:02:27.849Z,93988.91
2022-12-03T17:04:54.573Z,93998.94
2022-12-03T17:07:20.994Z,93989.38
2022-12-03T17:09:47.408Z,93997.38
2022-12-03T17:12:13.891Z,94002.75
2022-12-03T17:14:40.350Z,94017.56
2022-12-03T17:17:06.752Z,94005.25
2022-12-03T17:19:33.190Z,94009.81
2022-12-03T17:21:59.813Z,94003.91
2022-12-03T17:24:26.260Z,94010.81
2022-12-03T17:26:52.764Z,93991.00
2022-12-03T17:29:19.201Z,93999.16
2022-12-03T17:31:45.739Z,93999.94
2022-12-03T17:34:12.175Z,93988.16
2022-12-03T17:36:38.591Z,93981.22
2022-12-03T17:39:05.013Z,93982.78
2022-12-03T17:41:31.420Z,93980.22
2022-12-03T17:43:57.820Z,93972.78
2022-12-03T17:46:24.250Z,93970.97
2022-12-03T17:48:50.694Z,93968.13
2022-12-03T17:51:19.154Z,93973.53
2022-12-03T17:53:45.617Z,93965.84
2022-12-03T17:56:12.131Z,93958.94
2022-12-03T17:58:39.214Z,93963.28
2022-12-03T18:01:07.745Z,93950.72
2022-12-03T18:03:34.215Z,93967.28
2022-12-03T18:06:00.636Z,93965.25
2022-12-03T18:08:27.087Z,93967.81
2022-12-03T18:10:53.592Z,93964.25
2022-12-03T18:13:20.249Z,93954.00
2022-12-03T18:15:46.709Z,93962.69
2022-12-03T18:18:13.324Z,93960.13
2022-12-03T18:20:39.776Z,93951.66
2022-12-03T18:23:06.266Z,93952.97
2022-12-03T18:25:32.764Z,93951.81
2022-12-03T18:27:59.182Z,93944.38
2022-12-03T18:30:25.664Z,93943.75
2022-12-03T18:32:52.173Z,93948.56
2022-12-03T18:35:18.715Z,93936.44
2022-12-03T18:37:45.467Z,93944.13
2022-12-03T18:40:23.685Z,93950.81
2022-12-03T18:42:50.359Z,93954.38
2022-12-03T18:45:16.974Z,93953.03
2022-12-03T18:47:43.934Z,93955.38
2022-12-03T18:50:11.632Z,93948.25
2022-12-03T18:52:38.406Z,93943.13
2022-12-03T18:55:05.404Z,93945.69
2022-12-03T18:57:31.796Z,93956.47
2022-12-03T18:59:58.624Z,93956.25
2022-12-03T19:02:54.302Z,93949.56
2022-12-03T19:05:11.706Z,93950.25
2022-12-03T19:07:38.267Z,93952.50
2022-12-03T19:10:05.267Z,93950.97
2022-12-03T19:12:32.534Z,93945.28
2022-12-03T19:14:58.946Z,93948.09
2022-12-03T19:17:26.987Z,93948.56
2022-12-03T19:19:53.618Z,93940.88
2022-12-03T19:22:20.348Z,93942.66
2022-12-03T19:24:46.789Z,93938.78
2022-12-03T19:27:13.220Z,93936.75
2022-12-03T19:29:39.845Z,93942.44
2022-12-03T19:32:06.374Z,93931.16
2022-12-03T19:34:33.178Z,93925.72
2022-12-03T19:36:59.574Z,93928.59
2022-12-03T19:39:26.236Z,93937.84
2022-12-03T19:41:52.619Z,93926.03
2022-12-03T19:44:19.140Z,93925.56
2022-12-03T19:46:45.679Z,93922.03
2022-12-03T19:49:12.096Z,93924.34
2022-12-03T19:51:38.574Z,93924.59
2022-12-03T19:54:06.551Z,93936.16
2022-12-03T19:56:33.376Z,93930.25
2022-12-03T19:58:59.832Z,93930.25
2022-12-03T20:01:28.976Z,93940.94
2022-12-03T20:03:57.527Z,93935.81
2022-12-03T20:06:26.622Z,93937.38
2022-12-03T20:08:58.874Z,93929.13
2022-12-03T20:11:27.863Z,93927.59
2022-12-03T20:14:04.102Z,93945.94
2022-12-03T20:16:30.572Z,93947.47
2022-12-03T20:18:59.960Z,93938.00
2022-12-03T20:21:28.477Z,93929.78
2022-12-03T20:23:54.901Z,93923.63
2022-12-03T20:26:22.267Z,93917.28
2022-12-03T20:28:48.727Z,93911.91
2022-12-03T20:31:18.231Z,93921.69
2022-12-03T20:33:48.043Z,93918.22
2022-12-03T20:36:16.661Z,93922.31
2022-12-03T20:38:43.803Z,93916.19
2022-12-03T20:41:13.117Z,93913.09
2022-12-03T20:43:39.629Z,93916.66
2022-12-03T20:46:11.060Z,93907.97
2022-12-03T20:48:37.658Z,93907.97
2022-12-03T20:51:09.240Z,93914.09
2022-12-03T20:53:36.027Z,93898.13
2022-12-03T20:56:04.024Z,93904.09
2022-12-03T20:58:31.863Z,93902.28
2022-12-03T21:01:15.666Z,93912.53
2022-12-03T21:03:43.031Z,93898.88
2022-12-03T21:06:10.243Z,93919.22
2022-12-03T21:08:41.419Z,93909.97
2022-12-03T21:11:14.243Z,93898.41
2022-12-03T21:13:44.239Z,93905.09
2022-12-03T21:16:16.766Z,93903.25
2022-12-03T21:18:43.648Z,93900.66
2022-12-03T21:21:14.630Z,93881.19
2022-12-03T21:23:41.691Z,93879.09
2022-12-03T21:26:14.193Z,93889.00
2022-12-03T21:28:43.107Z,93876.31
2022-12-03T21:31:13.519Z,93892.81
2022-12-03T21:33:40.523Z,93890.72
2022-12-03T21:36:07.446Z,93881.50
2022-12-03T21:38:34.982Z,93889.72
2022-12-03T21:41:02.266Z,93892.53
2022-12-03T21:43:29.344Z,93881.03
2022-12-03T21:45:56.481Z,93882.81
2022-12-03T21:48:22.973Z,93869.00
2022-12-03T21:51:03.588Z,93874.66
2022-12-03T21:53:32.095Z,93880.56
2022-12-03T21:55:59.362Z,93876.97
2022-12-03T21:58:26.082Z,93878.88
2022-12-03T22:00:52.544Z,93875.81
2022-12-03T22:03:18.927Z,93872.25
2022-12-03T22:05:45.395Z,93871.78
2022-12-03T22:08:13.706Z,93866.66
2022-12-03T22:10:40.396Z,93862.06
2022-12-03T22:13:06.834Z,93863.63
2022-12-03T22:15:33.418Z,93858.44
2022-12-03T22:17:59.897Z,93864.09
2022-12-03T22:20:26.747Z,93864.34
2022-12-03T22:22:53.164Z,93870.63
2022-12-03T22:25:19.570Z,93881.19
2022-12-03T22:27:46.002Z,93875.53
2022-12-03T22:30:12.664Z,93876.06
2022-12-03T22:32:39.169Z,93870.94
2022-12-03T22:35:06.128Z,93873.97
2022-12-03T22:37:32.858Z,93869.84
2022-12-03T22:39:59.296Z,93880.56
2022-12-03T22:42:25.693Z,93882.34
2022-12-03T22:44:52.111Z,93869.31
2022-12-03T22:47:18.571Z,93863.31
2022-12-03T22:49:44.947Z,93861.34
2022-12-03T22:52:11.316Z,93863.88
2022-12-03T22:54:37.710Z,93865.88
2022-12-03T22:57:04.184Z,93871.25
2022-12-03T22:59:30.690Z,93875.91
2022-12-03T23:01:57.122Z,93865.22
2022-12-03T23:04:23.538Z,93863.66
2022-12-03T23:06:50.000Z,93862.09
2022-12-03T23:09:16.411Z,93844.63
2022-12-03T23:11:45.247Z,93842.38
2022-12-03T23:14:12.285Z,93849.84
2022-12-03T23:16:40.052Z,93845.78
2022-12-03T23:19:06.544Z,93836.84
2022-12-03T23:21:34.708Z,93827.63
2022-12-03T23:24:03.354Z,93818.59
2022-12-03T23:26:30.223Z,93817.06
2022-12-03T23:28:56.738Z,93826.53
2022-12-03T23:31:26.319Z,93823.44
2022-12-03T23:33:53.941Z,93832.91
2022-12-03T23:36:21.823Z,93826.69
2022-12-03T23:38:48.367Z,93829.81
2022-12-03T23:41:17.644Z,93815.44
2022-12-03T23:43:44.099Z,93811.63
2022-12-03T23:46:12.989Z,93810.84
2022-12-03T23:48:39.668Z,93795.28
2022-12-03T23:51:08.106Z,93805.28
2022-12-03T23:53:35.509Z,93807.53
2022-12-03T23:56:06.309Z,93802.66
2022-12-03T23:58:33.812Z,93801.41
